x

Neah Bay, - 6nm North Of Cape Flattery, Wa (traffic Separation Lighted Buoy) (46087) Wave Buoy

4:20 - Thu 23rd Feb 2017 All times are PST. -8 hours from GMT.

  • Sig Wave height 5.2ft
  • Swell Direction
  • Peak Period 8s
  • Average Period 8s
  • Wind
    9mph, 11mph gusts
  • Sea Temp 47°f
  • Ar Temp 43°f
  • Sea Pressure 1023.2mb
  • Neah Bay, - 6nm North Of Cape Flattery, Wa     (traffic Separation Lighted Buoy)
  • Neah Bay, - 6nm North Of Cape Flattery, Wa     (traffic Separation Lighted Buoy)

More Historic Weather Station data

Upgrade to MSW Pro to gain access to the past 30 days of data for over 8000 Wavebouys and Weather Stations around the globe.

Join Pro

Comparision Forecast

View Surf forecast
   
Qui 02/23 4:20 5ft 8s 8s 9 11 mph 1023.2mb 47f 43f
3:50 5ft 8s 8s 7 9 mph 1023.2mb 47f 43f
3:20 4.5ft 10s 7s 7 9 mph 1023.3mb 47f 43f
2:50 5ft 9s 7s 4
mph
1023.5mb 47f 43f
2:20 5ft 8s 7s 4 7 mph 1023.5mb 47f 43f
1:50 5ft 10s 7s 7 11 mph 1023.8mb 47f 43f
1:20 5ft 8s 7s 7 9 mph 1024.1mb 47f 43f
12:50 5.5ft 9s 7s 9 11 mph 1024.2mb 47f 42f
12:20 5ft 8s 7s 11 13 mph 1024.4mb 46f 42f
11:50 4.5ft 9s 7s 11 13 mph 1024.8mb 46f 42f
11:20 4.5ft 8s 7s 11 13 mph 1024.8mb 46f 42f
10:50 5ft 8s 7s 11 13 mph 1024.9mb 46f 41f
10:20 5ft 9s 7s 13 16 mph 1024.6mb 46f 40f
9:50 5ft 8s 7s 13 16 mph 1024.5mb 46f 40f
9:20 5ft 8s 7s 16 18 mph 1024.3mb 46f 40f
8:50 5ft 10s 7s 13 16 mph 1024.3mb 46f 39f
8:20 5ft 9s 7s 13 16 mph 1024.2mb 46f 39f
7:50 5ft 11s 8s 11 13 mph 1024.1mb 46f 38f
7:20 5ft 8s 7s 13 16 mph 1023.9mb 46f 39f
6:50 5ft 8s 7s 13 16 mph 1023.7mb 46f 38f
6:20 4.5ft 8s 7s 13 16 mph 1023.6mb 46f 38f
5:50 4.5ft 8s 7s 9 11 mph 1023.5mb 46f 39f
5:20 4.5ft 9s 8s 9 11 mph 1023.6mb 46f 39f
4:50 4.5ft 12s 8s 7 9 mph 1023.6mb 46f 39f
4:20 4.5ft 12s 8s 4 7 mph 1023.5mb 46f 39f
3:50 4.5ft 11s 8s 7 9 mph 1023.4mb 46f 39f
3:20 4.5ft 12s 8s 7 9 mph 1023.4mb 46f 39f
2:50 4.5ft 12s 8s 4 7 mph 1023.5mb 46f 39f
2:20 4.5ft 12s 8s 9 11 mph 1023.4mb 46f 39f
Qua 02/22 4:50 5.5ft 13s 8s 7 9 mph 1022.4mb 47f 43f
3:50 5ft 14s 8s 7 9 mph 1022.5mb 47f 43f
2:50 5.5ft 11s 8s 11 13 mph 1022.4mb 47f 43f
1:50 5ft 14s 8s 9 11 mph 1022.3mb 47f 42f
12:50 5.5ft 14s 8s 11 13 mph 1022.3mb 47f 41f
11:50 5.5ft 14s 7s 9 11 mph 1022.6mb 47f 41f
10:50 6ft 14s 8s 9
mph
1022.6mb 47f 42f
9:50 5.5ft 14s 7s 11 13 mph 1022.3mb 47f 41f
8:50 6ft 15s 7s 4 9 mph 1021.9mb 47f 40f
7:50 5.5ft 14s 7s 7 9 mph 1021.8mb 46f 40f
6:50 5.5ft 15s 7s 7 9 mph 1021.5mb 46f 40f
5:50 5ft 15s 8s 7 9 mph 1021.5mb 46f 41f
4:50 5ft 15s 7s 7
mph
1021.5mb 46f 41f
2:50 5.5ft 15s 7s 7 9 mph 1021.2mb 46f 43f
2:20 5ft 16s 7s 7
mph
1021.2mb 46f 42f
1:50 5ft 15s 6s 11 13 mph 1021mb 46f 43f
1:20 5ft 15s 6s 11 16 mph 1020.8mb 46f 44f
12:50 5ft 16s 7s 18 22 mph 1020.6mb 46f 43f
12:20 5ft 11s 6s 4 9 mph 1020.5mb 46f 43f
Ter 02/21 11:50 5ft 16s 6s 11 13 mph 1020.4mb 46f 42f
11:20 5ft 11s 6s 11 13 mph 1020mb 46f 44f
10:50 5ft 11s 6s 13 16 mph 1019.9mb 46f 44f
10:20 5ft 11s 6s 16 18 mph 1019.8mb 46f 45f
9:50 5ft 11s 6s 16 18 mph 1019.7mb 46f 45f
9:20 5ft 11s 6s 16 20 mph 1019.3mb 46f 45f
8:50 5ft 11s 6s 13 18 mph 1019.1mb 46f 45f
8:20 5ft 11s 6s 16 18 mph 1018.8mb 46f 45f
7:50 5.5ft 11s 6s 16 20 mph 1018.6mb 46f 45f
7:20 5ft 11s 6s 18 22 mph 1018.4mb 47f 45f
6:50 5ft 11s 7s 20 25 mph 1018.2mb 47f 45f
6:20 5.5ft 11s 7s 16 18 mph 1017.9mb 47f 45f
5:50 5ft 10s 6s 18 20 mph 1017.5mb 47f 45f
5:20 5ft 11s 6s 18 22 mph 1017.2mb 48f 46f
4:50 5ft 12s 6s 18 22 mph 1016.9mb 48f 46f
4:20 5ft 11s 6s 20 25 mph 1016.6mb 48f 46f
3:50 6ft 11s 6s 20 25 mph 1016.2mb 48f 46f
3:20 6ft 11s 6s 20 25 mph 1015.6mb 48f 46f
2:50 5ft 11s 6s 22 27 mph 1015.2mb 48f 46f
2:20 5ft 11s 6s 22 27 mph 1014.9mb 48f 46f
1:50 5ft 11s 6s 22 27 mph 1014.4mb 48f 46f
1:20 5.5ft 11s 6s 22 27 mph 1014mb 48f 45f
12:50 5ft 11s 6s 20 22 mph 1014.2mb 48f 45f
12:20 5ft 11s 6s 20 25 mph 1014mb 48f 45f
11:50 5ft 11s 7s 18 22 mph 1013.8mb 48f 44f
11:20 4.5ft 12s 7s 13 18 mph 1013.6mb 48f 44f
10:50 5ft 11s 7s 13 18 mph 1012.9mb 47f 44f
10:20 5ft 11s 8s 7 9 mph 1012.5mb 47f 42f
9:50 5ft 11s 8s 7
mph
1012mb 47f 42f
9:20 5ft 11s 8s 4 7 mph 1011.4mb 47f 42f
8:50 5ft 11s 8s 7
mph
1010.8mb 47f 42f
8:20 5ft 11s 8s 7 11 mph 1010.4mb 47f 42f
7:50 5ft 11s 9s 9 11 mph 1009.8mb 47f 42f
7:20 5ft 11s 8s 7 9 mph 1009.1mb 47f 41f
6:50 4.5ft 12s 8s 7 9 mph 1008.8mb 47f 42f
6:20 5ft 12s 9s 9 11 mph 1008.4mb 47f 42f
5:50 5.5ft 12s 9s 7 9 mph 1008.3mb 47f 42f
5:20 5ft 12s 8s 9
mph
1007.8mb 47f 42f
4:50 5ft 12s 8s 2 4 mph 1007.6mb 47f 42f
4:20 4.5ft 12s 8s 4 7 mph 1007.5mb 47f 42f
3:50 5ft 12s 8s 7 9 mph 1007.5mb 48f 42f
3:20 4.5ft 11s 8s 9 11 mph 1007.5mb 48f 42f
2:50 5ft 13s 8s 4 7 mph 1007.6mb 47f 44f
2:20 4.5ft 13s 8s 4 9 mph 1007.4mb 47f 43f
1:50 5ft 12s 8s 4 7 mph 1007.2mb 47f 42f
1:20 5ft 12s 8s 9 11 mph 1006.7mb 47f 42f
12:50 5.5ft 12s 8s 9 11 mph 1006.4mb 47f 42f
12:20 5ft 12s 8s 9 11 mph 1006.7mb 47f 43f
Seg 02/20 11:50 5ft 12s 8s 11 16 mph 1006.8mb 47f 43f
11:20 5.5ft 13s 8s 13 16 mph 1006.8mb 47f 43f
10:50 6ft 12s 8s 13 16 mph 1006.5mb 46f 43f
10:20 6.5ft 12s 8s 11 13 mph 1006.3mb 46f 43f
9:50 6ft 12s 8s 9 11 mph 1006.1mb 47f 44f
9:20 6ft 11s 8s 7 9 mph 1005.9mb 47f 43f
8:50 6ft 12s 8s 7 9 mph 1005.8mb 47f 44f
8:20 7ft 11s 9s 9 11 mph 1005.9mb 47f 46f
7:50 6ft 11s 9s 11 13 mph 1006mb 47f 46f
7:20 7ft 13s 9s 11 13 mph 1005.9mb 47f 46f
6:50 6.5ft 12s 9s 9 11 mph 1005.7mb 47f 46f
6:20 7ft 13s 9s 7 9 mph 1005.5mb 48f 46f
5:50 7ft 13s 9s 7 9 mph 1005.1mb 48f 46f
5:20 7ft 11s 9s 9 11 mph 1005mb 48f 46f
4:50 7ft 14s 9s 11 13 mph 1004.9mb 48f 46f
4:20 6ft 13s 8s 11 16 mph 1004.6mb 48f 46f
3:50 6.5ft 14s 9s 13 16 mph 1004.3mb 49f 46f
3:20 6ft 12s 9s 13 16 mph 1003.7mb 49f 46f
2:50 6ft 14s 10s 13 16 mph 1003.3mb 49f 46f
2:20 7ft 13s 11s 11 13 mph 1003mb 49f 46f
1:50 7ft 12s 10s 9 11 mph 1002.7mb 48f 46f
1:20 6ft 14s 10s 9 11 mph 1002.5mb 48f 46f
12:50 7ft 14s 10s 9 11 mph 1002.1mb 48f 46f
12:20 6.5ft 13s 10s 9
mph
1001.9mb 48f 45f
11:50 6.5ft 14s 10s 9
mph
1001.3mb 48f 45f
11:20 7ft 14s 10s 7
mph
1000.9mb 48f 45f
10:50 7ft 14s 10s 4 9 mph 1000.6mb 48f 44f
10:20 8ft 15s 10s 7 11 mph 1000.4mb 48f 44f
9:50 8ft 13s 10s 11 16 mph 1000mb 48f 44f
9:20 7.5ft 12s 10s 13 18 mph 999.6mb 48f 44f
8:50 8.5ft 15s 10s 11 16 mph 999.4mb 48f 43f
8:20 9ft 14s 11s 7 9 mph 999.2mb 47f 43f
7:50 9ft 12s 10s 7 9 mph 999.1mb 47f 43f
7:20 9ft 14s 10s 7 11 mph 999.1mb 47f 43f
6:50 9.5ft 13s 10s 9 13 mph 999.3mb 47f 43f
6:20 9ft 13s 10s 9 11 mph 999.3mb 47f 44f
5:50 9ft 14s 10s 7 9 mph 999.6mb 47f 44f
5:20 8ft 15s 11s 9 11 mph 999.8mb 47f 44f
4:50 8ft 14s 10s 9 11 mph 999.8mb 47f 44f
4:20 7.5ft 16s 10s 11 13 mph 999.9mb 47f 44f
3:50 8ft 15s 11s 11 16 mph 1000.1mb 47f 44f
3:20 7.5ft 16s 10s 11 16 mph 1000.4mb 47f 44f
2:50 8ft 15s 10s 9 13 mph 1000.7mb 47f 44f
2:20 7ft 16s 10s 4 7 mph 1001.1mb 47f 44f
1:50 8ft 16s 10s  -  2 mph 1001.4mb 47f 44f